sensor_id;sensor_type;location;lat;lon;timestamp;P1;durP1;ratioP1;P2;durP2;ratioP2
72301;SDS011;60235;52.234;5.186;2023-02-28T00:00:49;6.07;;;1.33;;
72301;SDS011;60235;52.234;5.186;2023-02-28T00:03:15;6.63;;;1.27;;
72301;SDS011;60235;52.234;5.186;2023-02-28T00:05:41;5.85;;;1.35;;
72301;SDS011;60235;52.234;5.186;2023-02-28T00:08:07;4.53;;;1.17;;
72301;SDS011;60235;52.234;5.186;2023-02-28T00:10:33;4.22;;;1.25;;
72301;SDS011;60235;52.234;5.186;2023-02-28T00:13:01;7.78;;;2.10;;
72301;SDS011;60235;52.234;5.186;2023-02-28T00:15:27;4.22;;;1.25;;
72301;SDS011;60235;52.234;5.186;2023-02-28T00:17:54;5.38;;;1.30;;
72301;SDS011;60235;52.234;5.186;2023-02-28T00:20:20;6.75;;;1.45;;
72301;SDS011;60235;52.234;5.186;2023-02-28T00:22:48;4.47;;;1.27;;
72301;SDS011;60235;52.234;5.186;2023-02-28T00:25:15;5.65;;;1.40;;
72301;SDS011;60235;52.234;5.186;2023-02-28T00:27:41;4.63;;;1.42;;
72301;SDS011;60235;52.234;5.186;2023-02-28T00:30:09;7.25;;;1.60;;
72301;SDS011;60235;52.234;5.186;2023-02-28T00:32:35;4.90;;;1.33;;
72301;SDS011;60235;52.234;5.186;2023-02-28T00:35:01;5.28;;;1.38;;
72301;SDS011;60235;52.234;5.186;2023-02-28T00:37:28;7.70;;;1.52;;
72301;SDS011;60235;52.234;5.186;2023-02-28T00:39:54;6.78;;;1.60;;
72301;SDS011;60235;52.234;5.186;2023-02-28T00:42:20;5.05;;;1.48;;
72301;SDS011;60235;52.234;5.186;2023-02-28T00:44:46;4.53;;;1.20;;
72301;SDS011;60235;52.234;5.186;2023-02-28T00:47:12;5.40;;;1.35;;
72301;SDS011;60235;52.234;5.186;2023-02-28T00:49:38;9.25;;;2.10;;
72301;SDS011;60235;52.234;5.186;2023-02-28T00:52:04;8.23;;;1.50;;
72301;SDS011;60235;52.234;5.186;2023-02-28T00:54:30;5.43;;;1.45;;
72301;SDS011;60235;52.234;5.186;2023-02-28T00:56:56;6.00;;;1.40;;
72301;SDS011;60235;52.234;5.186;2023-02-28T00:59:22;6.75;;;1.20;;
72301;SDS011;60235;52.234;5.186;2023-02-28T01:01:48;6.45;;;1.70;;
72301;SDS011;60235;52.234;5.186;2023-02-28T01:04:14;7.53;;;1.60;;
72301;SDS011;60235;52.234;5.186;2023-02-28T01:06:40;6.03;;;1.55;;
72301;SDS011;60235;52.234;5.186;2023-02-28T01:09:07;11.15;;;1.70;;
72301;SDS011;60235;52.234;5.186;2023-02-28T01:11:33;3.80;;;1.30;;
72301;SDS011;60235;52.234;5.186;2023-02-28T01:13:59;6.05;;;1.30;;
72301;SDS011;60235;52.234;5.186;2023-02-28T01:16:25;4.65;;;1.40;;
72301;SDS011;60235;52.234;5.186;2023-02-28T01:18:52;4.80;;;1.30;;
72301;SDS011;60235;52.234;5.186;2023-02-28T01:21:18;6.63;;;1.48;;
72301;SDS011;60235;52.234;5.186;2023-02-28T01:23:44;5.28;;;1.38;;
72301;SDS011;60235;52.234;5.186;2023-02-28T01:26:12;4.78;;;1.40;;
72301;SDS011;60235;52.234;5.186;2023-02-28T01:28:39;6.63;;;1.52;;
72301;SDS011;60235;52.234;5.186;2023-02-28T01:31:06;6.40;;;1.60;;
72301;SDS011;60235;52.234;5.186;2023-02-28T01:33:32;5.28;;;1.60;;
72301;SDS011;60235;52.234;5.186;2023-02-28T01:35:58;5.70;;;1.63;;
72301;SDS011;60235;52.234;5.186;2023-02-28T01:38:24;7.45;;;1.40;;
72301;SDS011;60235;52.234;5.186;2023-02-28T01:40:50;6.85;;;1.77;;
72301;SDS011;60235;52.234;5.186;2023-02-28T01:43:21;5.85;;;1.35;;
72301;SDS011;60235;52.234;5.186;2023-02-28T01:45:47;7.22;;;1.60;;
72301;SDS011;60235;52.234;5.186;2023-02-28T01:48:13;8.63;;;1.50;;
72301;SDS011;60235;52.234;5.186;2023-02-28T01:50:42;7.20;;;1.63;;
72301;SDS011;60235;52.234;5.186;2023-02-28T01:53:10;4.82;;;1.35;;
72301;SDS011;60235;52.234;5.186;2023-02-28T01:55:39;5.03;;;1.23;;
72301;SDS011;60235;52.234;5.186;2023-02-28T01:58:06;3.90;;;1.33;;
72301;SDS011;60235;52.234;5.186;2023-02-28T02:00:34;5.68;;;1.55;;
72301;SDS011;60235;52.234;5.186;2023-02-28T02:03:01;7.22;;;1.70;;
72301;SDS011;60235;52.234;5.186;2023-02-28T02:05:30;5.20;;;1.67;;
72301;SDS011;60235;52.234;5.186;2023-02-28T02:10:54;5.25;;;1.80;;
72301;SDS011;60235;52.234;5.186;2023-02-28T02:16:12;9.85;;;2.33;;
72301;SDS011;60235;52.234;5.186;2023-02-28T02:18:46;7.78;;;1.90;;
72301;SDS011;60235;52.234;5.186;2023-02-28T02:26:31;8.00;;;2.20;;
72301;SDS011;60235;52.234;5.186;2023-02-28T02:31:42;5.88;;;1.83;;
72301;SDS011;60235;52.234;5.186;2023-02-28T02:37:00;6.63;;;1.60;;
72301;SDS011;60235;52.234;5.186;2023-02-28T02:41:55;7.57;;;1.63;;
72301;SDS011;60235;52.234;5.186;2023-02-28T02:47:20;6.97;;;1.60;;
72301;SDS011;60235;52.234;5.186;2023-02-28T02:49:49;6.57;;;1.90;;
72301;SDS011;60235;52.234;5.186;2023-02-28T02:52:18;7.32;;;1.80;;
72301;SDS011;60235;52.234;5.186;2023-02-28T02:54:46;8.23;;;1.95;;
72301;SDS011;60235;52.234;5.186;2023-02-28T02:57:15;6.68;;;1.80;;
72301;SDS011;60235;52.234;5.186;2023-02-28T02:59:43;9.05;;;1.95;;
72301;SDS011;60235;52.234;5.186;2023-02-28T03:02:11;5.63;;;1.70;;
72301;SDS011;60235;52.234;5.186;2023-02-28T03:04:39;6.65;;;1.88;;
72301;SDS011;60235;52.234;5.186;2023-02-28T03:07:07;5.55;;;1.60;;
72301;SDS011;60235;52.234;5.186;2023-02-28T03:09:34;9.02;;;2.28;;
72301;SDS011;60235;52.234;5.186;2023-02-28T03:12:00;7.25;;;2.00;;
72301;SDS011;60235;52.234;5.186;2023-02-28T03:19:31;7.60;;;2.03;;
72301;SDS011;60235;52.234;5.186;2023-02-28T03:27:25;7.55;;;1.88;;
72301;SDS011;60235;52.234;5.186;2023-02-28T03:37:30;5.68;;;1.98;;
72301;SDS011;60235;52.234;5.186;2023-02-28T03:40:02;9.30;;;2.15;;
72301;SDS011;60235;52.234;5.186;2023-02-28T03:42:31;7.95;;;2.75;;
72301;SDS011;60235;52.234;5.186;2023-02-28T03:45:00;8.70;;;2.58;;
72301;SDS011;60235;52.234;5.186;2023-02-28T03:47:36;8.15;;;2.70;;
72301;SDS011;60235;52.234;5.186;2023-02-28T03:50:16;7.70;;;2.40;;
72301;SDS011;60235;52.234;5.186;2023-02-28T03:52:47;7.18;;;2.60;;
72301;SDS011;60235;52.234;5.186;2023-02-28T03:55:15;8.48;;;2.60;;
72301;SDS011;60235;52.234;5.186;2023-02-28T04:00:21;6.53;;;2.25;;
72301;SDS011;60235;52.234;5.186;2023-02-28T04:02:53;7.32;;;2.42;;
72301;SDS011;60235;52.234;5.186;2023-02-28T04:05:19;7.88;;;2.55;;
72301;SDS011;60235;52.234;5.186;2023-02-28T04:07:46;6.43;;;2.50;;
72301;SDS011;60235;52.234;5.186;2023-02-28T04:10:13;8.95;;;2.78;;
72301;SDS011;60235;52.234;5.186;2023-02-28T04:12:40;5.55;;;2.20;;
72301;SDS011;60235;52.234;5.186;2023-02-28T04:15:06;8.18;;;2.75;;
72301;SDS011;60235;52.234;5.186;2023-02-28T04:17:32;6.20;;;2.50;;
72301;SDS011;60235;52.234;5.186;2023-02-28T04:19:58;10.75;;;3.17;;
72301;SDS011;60235;52.234;5.186;2023-02-28T04:22:24;7.40;;;2.72;;
72301;SDS011;60235;52.234;5.186;2023-02-28T04:24:53;8.30;;;2.67;;
72301;SDS011;60235;52.234;5.186;2023-02-28T04:27:20;8.77;;;3.08;;
72301;SDS011;60235;52.234;5.186;2023-02-28T04:29:46;8.60;;;2.75;;
72301;SDS011;60235;52.234;5.186;2023-02-28T04:32:12;9.90;;;3.28;;
72301;SDS011;60235;52.234;5.186;2023-02-28T04:34:38;7.75;;;2.75;;
72301;SDS011;60235;52.234;5.186;2023-02-28T04:37:05;9.55;;;3.17;;
72301;SDS011;60235;52.234;5.186;2023-02-28T04:39:34;9.38;;;3.22;;
72301;SDS011;60235;52.234;5.186;2023-02-28T04:42:00;7.40;;;2.80;;
72301;SDS011;60235;52.234;5.186;2023-02-28T04:44:26;9.00;;;2.97;;
72301;SDS011;60235;52.234;5.186;2023-02-28T04:46:52;8.65;;;3.10;;
72301;SDS011;60235;52.234;5.186;2023-02-28T04:49:18;9.13;;;3.25;;
72301;SDS011;60235;52.234;5.186;2023-02-28T04:51:44;8.88;;;3.92;;
72301;SDS011;60235;52.234;5.186;2023-02-28T04:54:10;10.10;;;3.92;;
72301;SDS011;60235;52.234;5.186;2023-02-28T04:56:36;12.35;;;4.35;;
72301;SDS011;60235;52.234;5.186;2023-02-28T04:59:02;14.27;;;4.28;;
72301;SDS011;60235;52.234;5.186;2023-02-28T05:01:29;13.98;;;5.20;;
72301;SDS011;60235;52.234;5.186;2023-02-28T05:03:58;15.02;;;5.30;;
72301;SDS011;60235;52.234;5.186;2023-02-28T05:06:25;17.48;;;5.25;;
72301;SDS011;60235;52.234;5.186;2023-02-28T05:08:52;13.25;;;5.20;;
72301;SDS011;60235;52.234;5.186;2023-02-28T05:11:22;14.18;;;5.40;;
72301;SDS011;60235;52.234;5.186;2023-02-28T05:13:49;12.95;;;5.07;;
72301;SDS011;60235;52.234;5.186;2023-02-28T05:16:15;9.93;;;4.53;;
72301;SDS011;60235;52.234;5.186;2023-02-28T05:18:41;13.10;;;4.55;;
72301;SDS011;60235;52.234;5.186;2023-02-28T05:21:17;13.82;;;3.80;;
72301;SDS011;60235;52.234;5.186;2023-02-28T05:23:49;11.75;;;4.30;;
72301;SDS011;60235;52.234;5.186;2023-02-28T05:26:15;9.38;;;3.63;;
72301;SDS011;60235;52.234;5.186;2023-02-28T05:28:41;17.00;;;4.47;;
72301;SDS011;60235;52.234;5.186;2023-02-28T05:31:08;7.60;;;3.05;;
72301;SDS011;60235;52.234;5.186;2023-02-28T05:33:36;9.70;;;2.53;;
72301;SDS011;60235;52.234;5.186;2023-02-28T05:36:02;6.43;;;2.47;;
72301;SDS011;60235;52.234;5.186;2023-02-28T05:38:28;6.70;;;2.30;;
72301;SDS011;60235;52.234;5.186;2023-02-28T05:40:54;4.85;;;1.80;;
72301;SDS011;60235;52.234;5.186;2023-02-28T05:43:21;7.18;;;2.20;;
72301;SDS011;60235;52.234;5.186;2023-02-28T05:45:47;7.18;;;2.00;;
72301;SDS011;60235;52.234;5.186;2023-02-28T05:48:13;7.00;;;2.10;;
72301;SDS011;60235;52.234;5.186;2023-02-28T05:50:39;6.60;;;2.33;;
72301;SDS011;60235;52.234;5.186;2023-02-28T05:53:05;6.78;;;1.98;;
72301;SDS011;60235;52.234;5.186;2023-02-28T05:55:31;5.03;;;1.80;;
72301;SDS011;60235;52.234;5.186;2023-02-28T05:57:57;5.82;;;1.90;;
72301;SDS011;60235;52.234;5.186;2023-02-28T06:00:23;6.15;;;1.98;;
72301;SDS011;60235;52.234;5.186;2023-02-28T06:02:49;6.07;;;1.60;;
72301;SDS011;60235;52.234;5.186;2023-02-28T06:05:16;5.22;;;1.80;;
72301;SDS011;60235;52.234;5.186;2023-02-28T06:07:43;7.28;;;2.05;;
72301;SDS011;60235;52.234;5.186;2023-02-28T06:10:10;6.38;;;2.47;;
72301;SDS011;60235;52.234;5.186;2023-02-28T06:12:36;6.05;;;2.10;;
72301;SDS011;60235;52.234;5.186;2023-02-28T06:15:02;6.97;;;2.25;;
72301;SDS011;60235;52.234;5.186;2023-02-28T06:17:29;6.38;;;2.22;;
72301;SDS011;60235;52.234;5.186;2023-02-28T06:19:55;7.13;;;2.00;;
72301;SDS011;60235;52.234;5.186;2023-02-28T06:22:21;6.05;;;2.05;;
72301;SDS011;60235;52.234;5.186;2023-02-28T06:24:47;7.07;;;2.05;;
72301;SDS011;60235;52.234;5.186;2023-02-28T06:27:13;6.90;;;2.20;;
72301;SDS011;60235;52.234;5.186;2023-02-28T06:29:39;5.95;;;2.33;;
72301;SDS011;60235;52.234;5.186;2023-02-28T06:32:05;10.20;;;2.42;;
72301;SDS011;60235;52.234;5.186;2023-02-28T06:34:31;9.07;;;2.28;;
72301;SDS011;60235;52.234;5.186;2023-02-28T06:37:00;15.00;;;8.27;;
72301;SDS011;60235;52.234;5.186;2023-02-28T06:39:27;6.38;;;2.53;;
72301;SDS011;60235;52.234;5.186;2023-02-28T06:41:53;7.63;;;2.78;;
72301;SDS011;60235;52.234;5.186;2023-02-28T06:44:19;6.38;;;2.28;;
72301;SDS011;60235;52.234;5.186;2023-02-28T06:46:45;6.93;;;2.63;;
72301;SDS011;60235;52.234;5.186;2023-02-28T06:49:11;9.07;;;3.20;;
72301;SDS011;60235;52.234;5.186;2023-02-28T06:51:39;7.13;;;3.20;;
72301;SDS011;60235;52.234;5.186;2023-02-28T06:54:06;7.80;;;3.03;;
72301;SDS011;60235;52.234;5.186;2023-02-28T06:56:33;11.43;;;2.78;;
72301;SDS011;60235;52.234;5.186;2023-02-28T06:59:00;9.73;;;3.22;;
72301;SDS011;60235;52.234;5.186;2023-02-28T07:01:26;8.80;;;2.90;;
72301;SDS011;60235;52.234;5.186;2023-02-28T07:03:53;7.45;;;2.92;;
72301;SDS011;60235;52.234;5.186;2023-02-28T07:06:19;7.22;;;2.65;;
72301;SDS011;60235;52.234;5.186;2023-02-28T07:08:47;8.20;;;3.20;;
72301;SDS011;60235;52.234;5.186;2023-02-28T07:11:13;7.93;;;2.88;;
72301;SDS011;60235;52.234;5.186;2023-02-28T07:13:39;10.70;;;3.28;;
72301;SDS011;60235;52.234;5.186;2023-02-28T07:16:07;10.20;;;3.45;;
72301;SDS011;60235;52.234;5.186;2023-02-28T07:18:33;10.20;;;3.30;;
72301;SDS011;60235;52.234;5.186;2023-02-28T07:21:02;9.07;;;3.13;;
72301;SDS011;60235;52.234;5.186;2023-02-28T07:23:28;8.27;;;3.25;;
72301;SDS011;60235;52.234;5.186;2023-02-28T07:25:54;7.65;;;3.03;;
72301;SDS011;60235;52.234;5.186;2023-02-28T07:28:20;8.15;;;3.13;;
72301;SDS011;60235;52.234;5.186;2023-02-28T07:30:46;7.70;;;3.03;;
72301;SDS011;60235;52.234;5.186;2023-02-28T07:33:13;8.93;;;3.15;;
72301;SDS011;60235;52.234;5.186;2023-02-28T07:35:39;8.88;;;3.42;;
72301;SDS011;60235;52.234;5.186;2023-02-28T07:38:05;7.90;;;2.90;;
72301;SDS011;60235;52.234;5.186;2023-02-28T07:40:32;6.38;;;2.75;;
72301;SDS011;60235;52.234;5.186;2023-02-28T07:42:59;8.13;;;2.97;;
72301;SDS011;60235;52.234;5.186;2023-02-28T07:45:25;9.48;;;3.08;;
72301;SDS011;60235;52.234;5.186;2023-02-28T07:47:51;11.98;;;3.30;;
72301;SDS011;60235;52.234;5.186;2023-02-28T07:50:17;9.18;;;3.20;;
72301;SDS011;60235;52.234;5.186;2023-02-28T07:52:43;7.68;;;3.10;;
72301;SDS011;60235;52.234;5.186;2023-02-28T07:55:09;11.40;;;3.38;;
72301;SDS011;60235;52.234;5.186;2023-02-28T07:57:35;9.77;;;2.83;;
72301;SDS011;60235;52.234;5.186;2023-02-28T08:00:03;9.98;;;3.20;;
72301;SDS011;60235;52.234;5.186;2023-02-28T08:02:29;6.97;;;3.08;;
72301;SDS011;60235;52.234;5.186;2023-02-28T08:04:55;8.23;;;2.97;;
72301;SDS011;60235;52.234;5.186;2023-02-28T08:07:21;9.82;;;2.90;;
72301;SDS011;60235;52.234;5.186;2023-02-28T08:09:47;7.93;;;3.28;;
72301;SDS011;60235;52.234;5.186;2023-02-28T08:12:13;10.65;;;3.28;;
72301;SDS011;60235;52.234;5.186;2023-02-28T08:14:39;10.10;;;3.40;;
72301;SDS011;60235;52.234;5.186;2023-02-28T08:17:05;8.52;;;3.05;;
72301;SDS011;60235;52.234;5.186;2023-02-28T08:19:32;7.28;;;3.22;;
72301;SDS011;60235;52.234;5.186;2023-02-28T08:21:58;9.38;;;3.67;;
72301;SDS011;60235;52.234;5.186;2023-02-28T08:24:24;8.73;;;2.97;;
72301;SDS011;60235;52.234;5.186;2023-02-28T08:26:50;8.63;;;3.17;;
72301;SDS011;60235;52.234;5.186;2023-02-28T08:29:16;8.93;;;3.30;;
72301;SDS011;60235;52.234;5.186;2023-02-28T08:31:42;8.13;;;3.10;;
72301;SDS011;60235;52.234;5.186;2023-02-28T08:34:09;8.85;;;3.63;;
72301;SDS011;60235;52.234;5.186;2023-02-28T08:36:35;8.82;;;3.17;;
72301;SDS011;60235;52.234;5.186;2023-02-28T08:39:02;8.18;;;3.33;;
72301;SDS011;60235;52.234;5.186;2023-02-28T08:41:28;9.13;;;3.67;;
72301;SDS011;60235;52.234;5.186;2023-02-28T08:43:55;8.85;;;3.25;;
72301;SDS011;60235;52.234;5.186;2023-02-28T08:46:21;8.68;;;3.70;;
72301;SDS011;60235;52.234;5.186;2023-02-28T08:48:47;8.38;;;3.65;;
72301;SDS011;60235;52.234;5.186;2023-02-28T08:51:14;8.57;;;3.47;;
72301;SDS011;60235;52.234;5.186;2023-02-28T08:53:43;10.05;;;3.53;;
72301;SDS011;60235;52.234;5.186;2023-02-28T08:56:11;8.85;;;3.63;;
72301;SDS011;60235;52.234;5.186;2023-02-28T08:58:38;10.98;;;3.70;;
72301;SDS011;60235;52.234;5.186;2023-02-28T09:01:15;9.30;;;3.25;;
72301;SDS011;60235;52.234;5.186;2023-02-28T09:03:41;9.00;;;3.42;;
72301;SDS011;60235;52.234;5.186;2023-02-28T09:06:07;8.32;;;3.30;;
72301;SDS011;60235;52.234;5.186;2023-02-28T09:08:34;11.15;;;3.15;;
72301;SDS011;60235;52.234;5.186;2023-02-28T09:11:00;8.55;;;3.10;;
72301;SDS011;60235;52.234;5.186;2023-02-28T09:13:28;11.40;;;3.60;;
72301;SDS011;60235;52.234;5.186;2023-02-28T09:15:54;9.85;;;3.30;;
72301;SDS011;60235;52.234;5.186;2023-02-28T09:18:20;6.85;;;3.00;;
72301;SDS011;60235;52.234;5.186;2023-02-28T09:20:46;12.07;;;3.30;;
72301;SDS011;60235;52.234;5.186;2023-02-28T09:23:12;8.80;;;3.20;;
72301;SDS011;60235;52.234;5.186;2023-02-28T09:25:44;10.15;;;3.30;;
72301;SDS011;60235;52.234;5.186;2023-02-28T09:28:10;8.88;;;2.95;;
72301;SDS011;60235;52.234;5.186;2023-02-28T09:30:36;9.52;;;2.75;;
72301;SDS011;60235;52.234;5.186;2023-02-28T09:33:03;7.57;;;2.88;;
72301;SDS011;60235;52.234;5.186;2023-02-28T09:35:29;6.97;;;2.78;;
72301;SDS011;60235;52.234;5.186;2023-02-28T09:37:55;6.80;;;2.40;;
72301;SDS011;60235;52.234;5.186;2023-02-28T09:40:23;8.43;;;3.53;;
72301;SDS011;60235;52.234;5.186;2023-02-28T09:42:50;6.85;;;2.33;;
72301;SDS011;60235;52.234;5.186;2023-02-28T09:45:39;7.43;;;2.38;;
72301;SDS011;60235;52.234;5.186;2023-02-28T09:48:04;8.52;;;2.78;;
72301;SDS011;60235;52.234;5.186;2023-02-28T09:50:36;7.03;;;2.38;;
72301;SDS011;60235;52.234;5.186;2023-02-28T09:53:06;6.20;;;2.30;;
72301;SDS011;60235;52.234;5.186;2023-02-28T09:55:38;5.60;;;2.20;;
72301;SDS011;60235;52.234;5.186;2023-02-28T09:58:05;6.43;;;2.30;;
72301;SDS011;60235;52.234;5.186;2023-02-28T10:03:13;5.60;;;2.00;;
72301;SDS011;60235;52.234;5.186;2023-02-28T10:05:50;6.60;;;2.40;;
72301;SDS011;60235;52.234;5.186;2023-02-28T10:08:25;6.93;;;2.17;;
72301;SDS011;60235;52.234;5.186;2023-02-28T10:10:57;6.45;;;2.28;;
72301;SDS011;60235;52.234;5.186;2023-02-28T10:13:25;5.03;;;2.03;;
72301;SDS011;60235;52.234;5.186;2023-02-28T10:15:56;5.63;;;2.13;;
72301;SDS011;60235;52.234;5.186;2023-02-28T10:18:25;5.75;;;2.08;;
72301;SDS011;60235;52.234;5.186;2023-02-28T10:20:53;8.07;;;2.50;;
72301;SDS011;60235;52.234;5.186;2023-02-28T10:23:28;5.88;;;2.45;;
72301;SDS011;60235;52.234;5.186;2023-02-28T10:26:00;5.38;;;2.10;;
72301;SDS011;60235;52.234;5.186;2023-02-28T10:28:26;5.97;;;2.03;;
72301;SDS011;60235;52.234;5.186;2023-02-28T10:30:54;6.22;;;2.22;;
72301;SDS011;60235;52.234;5.186;2023-02-28T10:33:32;6.32;;;2.13;;
72301;SDS011;60235;52.234;5.186;2023-02-28T10:35:59;6.28;;;2.35;;
72301;SDS011;60235;52.234;5.186;2023-02-28T10:38:36;4.90;;;1.85;;
72301;SDS011;60235;52.234;5.186;2023-02-28T10:41:06;8.07;;;2.38;;
72301;SDS011;60235;52.234;5.186;2023-02-28T10:43:33;5.60;;;2.10;;
72301;SDS011;60235;52.234;5.186;2023-02-28T10:48:27;5.95;;;1.33;;
72301;SDS011;60235;52.234;5.186;2023-02-28T10:55:59;3.50;;;1.20;;
72301;SDS011;60235;52.234;5.186;2023-02-28T10:58:27;3.67;;;1.20;;
72301;SDS011;60235;52.234;5.186;2023-02-28T11:00:53;3.80;;;1.20;;
72301;SDS011;60235;52.234;5.186;2023-02-28T11:03:37;4.07;;;1.30;;
72301;SDS011;60235;52.234;5.186;2023-02-28T11:06:08;4.60;;;1.38;;
72301;SDS011;60235;52.234;5.186;2023-02-28T11:08:48;4.13;;;1.33;;
72301;SDS011;60235;52.234;5.186;2023-02-28T11:11:15;4.68;;;1.45;;
72301;SDS011;60235;52.234;5.186;2023-02-28T11:13:42;4.13;;;1.20;;
72301;SDS011;60235;52.234;5.186;2023-02-28T11:16:10;5.35;;;1.40;;
72301;SDS011;60235;52.234;5.186;2023-02-28T11:21:02;4.07;;;1.27;;
72301;SDS011;60235;52.234;5.186;2023-02-28T11:23:30;4.22;;;1.27;;
72301;SDS011;60235;52.234;5.186;2023-02-28T11:25:59;6.10;;;1.63;;
72301;SDS011;60235;52.234;5.186;2023-02-28T11:28:32;5.00;;;1.42;;
72301;SDS011;60235;52.234;5.186;2023-02-28T11:36:10;4.20;;;1.40;;
72301;SDS011;60235;52.234;5.186;2023-02-28T11:38:36;4.18;;;1.40;;
72301;SDS011;60235;52.234;5.186;2023-02-28T11:41:25;6.32;;;1.80;;
72301;SDS011;60235;52.234;5.186;2023-02-28T11:46:23;4.70;;;1.50;;
72301;SDS011;60235;52.234;5.186;2023-02-28T11:48:58;6.18;;;1.80;;
72301;SDS011;60235;52.234;5.186;2023-02-28T11:51:28;5.50;;;1.70;;
72301;SDS011;60235;52.234;5.186;2023-02-28T12:11:55;5.78;;;1.63;;
72301;SDS011;60235;52.234;5.186;2023-02-28T12:17:59;6.95;;;2.17;;
72301;SDS011;60235;52.234;5.186;2023-02-28T12:27:41;4.65;;;1.65;;
72301;SDS011;60235;52.234;5.186;2023-02-28T12:33:01;3.50;;;1.17;;
72301;SDS011;60235;52.234;5.186;2023-02-28T12:35:33;4.07;;;1.30;;
72301;SDS011;60235;52.234;5.186;2023-02-28T12:40:43;4.60;;;1.50;;
72301;SDS011;60235;52.234;5.186;2023-02-28T12:43:11;4.40;;;1.40;;
72301;SDS011;60235;52.234;5.186;2023-02-28T12:50:39;3.85;;;1.27;;
72301;SDS011;60235;52.234;5.186;2023-02-28T12:53:06;5.75;;;1.40;;
72301;SDS011;60235;52.234;5.186;2023-02-28T12:55:38;4.63;;;1.55;;
72301;SDS011;60235;52.234;5.186;2023-02-28T13:06:15;4.72;;;1.40;;
72301;SDS011;60235;52.234;5.186;2023-02-28T13:11:23;4.95;;;1.30;;
72301;SDS011;60235;52.234;5.186;2023-02-28T13:13:49;4.35;;;1.25;;
72301;SDS011;60235;52.234;5.186;2023-02-28T13:16:22;4.95;;;1.63;;
72301;SDS011;60235;52.234;5.186;2023-02-28T13:18:48;4.28;;;1.55;;
72301;SDS011;60235;52.234;5.186;2023-02-28T13:21:32;4.22;;;1.25;;
72301;SDS011;60235;52.234;5.186;2023-02-28T13:24:03;5.28;;;1.60;;
72301;SDS011;60235;52.234;5.186;2023-02-28T13:31:29;4.90;;;1.30;;
72301;SDS011;60235;52.234;5.186;2023-02-28T13:36:28;4.55;;;1.40;;
72301;SDS011;60235;52.234;5.186;2023-02-28T13:38:57;6.38;;;1.50;;
72301;SDS011;60235;52.234;5.186;2023-02-28T13:51:47;5.95;;;1.33;;
72301;SDS011;60235;52.234;5.186;2023-02-28T13:57:05;5.47;;;1.73;;
72301;SDS011;60235;52.234;5.186;2023-02-28T13:59:31;3.97;;;1.35;;
72301;SDS011;60235;52.234;5.186;2023-02-28T14:02:03;5.28;;;1.40;;
72301;SDS011;60235;52.234;5.186;2023-02-28T14:07:04;5.57;;;1.42;;
72301;SDS011;60235;52.234;5.186;2023-02-28T14:09:31;5.88;;;1.50;;
72301;SDS011;60235;52.234;5.186;2023-02-28T14:12:50;4.47;;;1.33;;
72301;SDS011;60235;52.234;5.186;2023-02-28T14:17:14;4.63;;;1.40;;
72301;SDS011;60235;52.234;5.186;2023-02-28T14:19:40;5.22;;;1.60;;
72301;SDS011;60235;52.234;5.186;2023-02-28T14:24:51;5.05;;;1.58;;
72301;SDS011;60235;52.234;5.186;2023-02-28T14:32:51;4.72;;;1.67;;
72301;SDS011;60235;52.234;5.186;2023-02-28T14:35:25;4.40;;;1.40;;
72301;SDS011;60235;52.234;5.186;2023-02-28T14:37:53;4.90;;;1.60;;
72301;SDS011;60235;52.234;5.186;2023-02-28T14:40:41;4.68;;;1.45;;
72301;SDS011;60235;52.234;5.186;2023-02-28T14:43:16;6.80;;;1.90;;
72301;SDS011;60235;52.234;5.186;2023-02-28T14:45:48;6.63;;;2.22;;
72301;SDS011;60235;52.234;5.186;2023-02-28T14:48:15;4.18;;;1.60;;
72301;SDS011;60235;52.234;5.186;2023-02-28T14:50:41;6.40;;;1.85;;
72301;SDS011;60235;52.234;5.186;2023-02-28T14:53:15;4.57;;;1.50;;
72301;SDS011;60235;52.234;5.186;2023-02-28T14:55:46;5.75;;;1.98;;
72301;SDS011;60235;52.234;5.186;2023-02-28T14:58:23;4.20;;;1.50;;
72301;SDS011;60235;52.234;5.186;2023-02-28T15:00:50;5.57;;;1.70;;
72301;SDS011;60235;52.234;5.186;2023-02-28T15:03:36;5.30;;;1.67;;
72301;SDS011;60235;52.234;5.186;2023-02-28T15:06:04;5.65;;;2.05;;
72301;SDS011;60235;52.234;5.186;2023-02-28T15:08:31;6.22;;;1.80;;
72301;SDS011;60235;52.234;5.186;2023-02-28T15:11:01;5.30;;;1.63;;
72301;SDS011;60235;52.234;5.186;2023-02-28T15:13:35;6.00;;;1.83;;
72301;SDS011;60235;52.234;5.186;2023-02-28T15:16:03;4.10;;;1.58;;
72301;SDS011;60235;52.234;5.186;2023-02-28T15:18:31;4.95;;;2.00;;
72301;SDS011;60235;52.234;5.186;2023-02-28T15:21:00;4.40;;;1.60;;
72301;SDS011;60235;52.234;5.186;2023-02-28T15:23:28;6.35;;;2.08;;
72301;SDS011;60235;52.234;5.186;2023-02-28T15:25:54;5.65;;;1.75;;
72301;SDS011;60235;52.234;5.186;2023-02-28T15:28:21;5.68;;;1.83;;
72301;SDS011;60235;52.234;5.186;2023-02-28T15:33:21;5.50;;;2.00;;
72301;SDS011;60235;52.234;5.186;2023-02-28T15:35:48;6.22;;;1.95;;
72301;SDS011;60235;52.234;5.186;2023-02-28T15:40:53;6.45;;;1.80;;
72301;SDS011;60235;52.234;5.186;2023-02-28T15:43:32;9.73;;;2.05;;
72301;SDS011;60235;52.234;5.186;2023-02-28T15:46:02;5.30;;;1.90;;
72301;SDS011;60235;52.234;5.186;2023-02-28T15:48:30;6.28;;;2.45;;
72301;SDS011;60235;52.234;5.186;2023-02-28T15:50:58;6.68;;;2.30;;
72301;SDS011;60235;52.234;5.186;2023-02-28T15:53:30;5.20;;;2.25;;
72301;SDS011;60235;52.234;5.186;2023-02-28T15:55:58;6.22;;;2.10;;
72301;SDS011;60235;52.234;5.186;2023-02-28T15:58:25;5.38;;;1.88;;
72301;SDS011;60235;52.234;5.186;2023-02-28T16:01:03;5.63;;;2.17;;
72301;SDS011;60235;52.234;5.186;2023-02-28T16:03:41;5.70;;;1.77;;
72301;SDS011;60235;52.234;5.186;2023-02-28T16:06:53;5.57;;;1.88;;
72301;SDS011;60235;52.234;5.186;2023-02-28T16:08:54;5.63;;;1.63;;
72301;SDS011;60235;52.234;5.186;2023-02-28T16:11:20;5.88;;;1.90;;
72301;SDS011;60235;52.234;5.186;2023-02-28T16:13:47;6.38;;;2.00;;
72301;SDS011;60235;52.234;5.186;2023-02-28T16:16:21;6.28;;;2.42;;
72301;SDS011;60235;52.234;5.186;2023-02-28T16:18:47;6.70;;;2.70;;
72301;SDS011;60235;52.234;5.186;2023-02-28T16:21:13;7.13;;;2.97;;
72301;SDS011;60235;52.234;5.186;2023-02-28T16:23:39;6.30;;;2.42;;
72301;SDS011;60235;52.234;5.186;2023-02-28T16:26:06;6.72;;;2.33;;
72301;SDS011;60235;52.234;5.186;2023-02-28T16:28:34;6.32;;;2.97;;
72301;SDS011;60235;52.234;5.186;2023-02-28T16:31:01;6.82;;;2.80;;
72301;SDS011;60235;52.234;5.186;2023-02-28T16:33:27;11.18;;;3.05;;
72301;SDS011;60235;52.234;5.186;2023-02-28T16:35:53;7.47;;;2.65;;
72301;SDS011;60235;52.234;5.186;2023-02-28T16:38:19;7.28;;;2.15;;
72301;SDS011;60235;52.234;5.186;2023-02-28T16:40:46;7.07;;;2.75;;
72301;SDS011;60235;52.234;5.186;2023-02-28T16:43:15;8.32;;;3.00;;
72301;SDS011;60235;52.234;5.186;2023-02-28T16:45:42;7.93;;;2.85;;
72301;SDS011;60235;52.234;5.186;2023-02-28T16:48:11;6.57;;;2.22;;
72301;SDS011;60235;52.234;5.186;2023-02-28T16:50:38;5.35;;;2.15;;
72301;SDS011;60235;52.234;5.186;2023-02-28T16:53:04;7.00;;;2.40;;
72301;SDS011;60235;52.234;5.186;2023-02-28T16:55:30;6.03;;;2.03;;
72301;SDS011;60235;52.234;5.186;2023-02-28T16:57:59;8.35;;;2.70;;
72301;SDS011;60235;52.234;5.186;2023-02-28T17:00:27;8.13;;;2.80;;
72301;SDS011;60235;52.234;5.186;2023-02-28T17:02:53;9.23;;;3.22;;
72301;SDS011;60235;52.234;5.186;2023-02-28T17:05:20;11.75;;;4.07;;
72301;SDS011;60235;52.234;5.186;2023-02-28T17:07:47;10.35;;;3.38;;
72301;SDS011;60235;52.234;5.186;2023-02-28T17:10:17;6.55;;;2.40;;
72301;SDS011;60235;52.234;5.186;2023-02-28T17:12:43;10.27;;;3.50;;
72301;SDS011;60235;52.234;5.186;2023-02-28T17:15:13;7.05;;;2.65;;
72301;SDS011;60235;52.234;5.186;2023-02-28T17:17:40;7.75;;;2.55;;
72301;SDS011;60235;52.234;5.186;2023-02-28T17:20:06;7.07;;;2.35;;
72301;SDS011;60235;52.234;5.186;2023-02-28T17:22:32;9.88;;;2.35;;